tititudorancea.com
Station Historical Data
Daily Summary for November 10, 2018 Units:  Metric    English   Both
« Previous Day
Next Day »
Daily Weekly Monthly Yearly Custom
  High: Low: Average:
Temperature: -17.8 °C 5.8 °C 12.4 °C
Dew Point: -17.8 °C 4.6 °C 7.1 °C
Humidity: Humidity % 46 % 72 %
Wind Speed: 0 km/h 0 km/h 7.4 km/h
Wind Gust: 0 km/h - -
Wind:- - SW
Pressure: 0 hPa 1016.5 hPa -
Precipitation: 0 mm    
Historical Graphs
 
 
Ararat weather Find more about Weather in Ararat, AU


 



 


Tabular Data for November 10, 2018
Time Temperature Dew Point Pressure Wind Wind Speed Wind Gust Humidity Rainfall Rate (Hourly)
-17.8 °C -17.8 °C 0 hPa Calm     Humidity % 0 mm
00:04 8.4 °C 6.5 °C 1017.8 hPa Calm     88 % 0 mm
00:09 8.3 °C 6.4 °C 1017.8 hPa Calm     88 % 0 mm
00:14 8.2 °C 6.3 °C 1017.8 hPa Calm     88 % 0 mm
00:19 8.1 °C 6.2 °C 1017.8 hPa Calm     88 % 0 mm
00:24 8 °C 6.3 °C 1017.8 hPa Calm     89 % 0 mm
00:29 8 °C 6.3 °C 1017.8 hPa Calm     89 % 0 mm
00:34 7.9 °C 6.2 °C 1017.8 hPa Calm     89 % 0 mm
00:39 7.9 °C 6.4 °C 1017.8 hPa Calm     90 % 0 mm
00:44 7.9 °C 6.3 °C 1017.5 hPa Calm     90 % 0 mm
00:49 7.9 °C 6.3 °C 1017.8 hPa Calm     90 % 0 mm
00:54 7.9 °C 6.3 °C 1017.8 hPa Calm     90 % 0 mm
00:59 7.7 °C 5.9 °C 1017.8 hPa Calm     89 % 0 mm
01:04 7.6 °C 6.1 °C 1017.8 hPa Calm     90 % 0 mm
01:09 7.6 °C 6.1 °C 1017.8 hPa Calm     90 % 0 mm
01:14 7.6 °C 6 °C 1017.5 hPa Calm     90 % 0 mm
01:19 7.4 °C 5.8 °C 1017.5 hPa Calm     90 % 0 mm
01:24 7.3 °C 5.7 °C 1017.5 hPa Calm     90 % 0 mm
01:29 7.1 °C 5.6 °C 1017.5 hPa Calm     90 % 0 mm
01:34 7 °C 5.4 °C 1017.5 hPa Calm     90 % 0 mm
01:39 6.9 °C 5.4 °C 1017.5 hPa Calm     90 % 0 mm
01:44 6.8 °C 5.3 °C 1017.2 hPa Calm     90 % 0 mm
01:49 6.7 °C 5.3 °C 1017.2 hPa Calm     91 % 0 mm
01:54 6.7 °C 5.3 °C 1017.2 hPa Calm     91 % 0 mm
01:59 6.7 °C 5.3 °C 1017.2 hPa Calm     91 % 0 mm
02:04 6.7 °C 5.3 °C 1017.2 hPa Calm     91 % 0 mm
02:09 6.7 °C 5.3 °C 1017.2 hPa Calm     91 % 0 mm
02:14 6.7 °C 5.3 °C 1017.2 hPa Calm     91 % 0 mm
02:19 6.6 °C 5.2 °C 1017.2 hPa Calm     91 % 0 mm
02:24 6.4 °C 5 °C 1017.2 hPa Calm     91 % 0 mm
02:29 6.2 °C 4.9 °C 1017.2 hPa Calm     91 % 0 mm
02:34 6.1 °C 4.7 °C 1017.2 hPa Calm     91 % 0 mm
02:39 6 °C 4.8 °C 1017.2 hPa Calm     92 % 0 mm
02:44 6 °C 4.8 °C 1017.2 hPa Calm     92 % 0 mm
02:49 5.9 °C 4.6 °C 1017.2 hPa Calm     91 % 0 mm
02:54 5.9 °C 4.6 °C 1017.2 hPa Calm     91 % 0 mm
02:59 5.8 °C 4.6 °C 1017.2 hPa Calm     92 % 0 mm
03:04 5.8 °C 4.6 °C 1017.2 hPa Calm     92 % 0 mm
03:09 5.9 °C 4.7 °C 1016.8 hPa Calm     92 % 0 mm
03:14 5.9 °C 4.7 °C 1016.8 hPa Calm     92 % 0 mm
03:19 6.1 °C 5 °C 1016.8 hPa Calm     93 % 0 mm
03:24 6.2 °C 5.1 °C 1016.8 hPa Calm     93 % 0 mm
03:29 6.3 °C 5.2 °C 1017.2 hPa Calm     93 % 0 mm
03:34 6.3 °C 5.3 °C 1016.8 hPa Calm     93 % 0 mm
03:39 6.4 °C 5.3 °C 1016.8 hPa Calm     93 % 0 mm
03:44 6.4 °C 5.2 °C 1016.8 hPa Calm     92 % 0 mm
03:49 6.3 °C 5.1 °C 1016.8 hPa Calm     92 % 0 mm
03:54 6.2 °C 4.9 °C 1016.8 hPa Calm     92 % 0 mm
03:59 6.2 °C 4.9 °C 1016.8 hPa Calm     92 % 0 mm
04:04 6.1 °C 4.9 °C 1016.8 hPa Calm     92 % 0 mm
04:09 6.1 °C 5 °C 1016.8 hPa Calm     93 % 0 mm
04:14 6.1 °C 5 °C 1016.8 hPa Calm     93 % 0 mm
04:19 6.1 °C 5.1 °C 1016.8 hPa Calm     93 % 0 mm
04:24 6.1 °C 5 °C 1016.8 hPa Calm     93 % 0 mm
04:29 6 °C 4.9 °C 1016.8 hPa Calm     93 % 0 mm
04:34 6.1 °C 5 °C 1016.5 hPa Calm     93 % 0 mm
04:39 6.1 °C 5.1 °C 1016.5 hPa Calm     93 % 0 mm
04:44 6.2 °C 5.2 °C 1016.5 hPa SSW 1.9 km/h   93 % 0 mm
04:49 6.2 °C 5.2 °C 1016.5 hPa Calm     93 % 0 mm
04:54 6.2 °C 5.1 °C 1016.5 hPa Calm     93 % 0 mm
04:59 6.2 °C 5.2 °C 1016.5 hPa Calm     93 % 0 mm
05:04 6.2 °C 5.1 °C 1016.5 hPa Calm     93 % 0 mm
05:09 6.2 °C 5.1 °C 1016.5 hPa Calm     93 % 0 mm
05:14 6.2 °C 5.1 °C 1016.8 hPa Calm     93 % 0 mm
05:19 6.2 °C 5.1 °C 1016.5 hPa Calm     93 % 0 mm
05:24 6.1 °C 5 °C 1016.5 hPa Calm     93 % 0 mm
05:29 6.1 °C 5 °C 1016.5 hPa Calm     93 % 0 mm
05:34 6 °C 4.9 °C 1016.8 hPa Calm     93 % 0 mm
05:39 5.9 °C 4.9 °C 1016.8 hPa Calm     93 % 0 mm
05:44 5.9 °C 4.8 °C 1016.8 hPa Calm     93 % 0 mm
05:49 5.9 °C 4.8 °C 1016.8 hPa SSW 3.7 km/h 2.4 km/h 93 % 0 mm
05:54 5.9 °C 4.8 °C 1016.8 hPa SSW 3.7 km/h 0.2 km/h 93 % 0 mm
05:59 5.9 °C 4.8 °C 1016.8 hPa Calm     93 % 0 mm
06:04 5.9 °C 4.8 °C 1017.2 hPa Calm     93 % 0 mm
06:09 5.9 °C 5 °C 1017.2 hPa Calm     94 % 0 mm
06:14 6 °C 5.1 °C 1017.2 hPa Calm     94 % 0 mm
06:19 5.9 °C 5.1 °C 1017.2 hPa SSW 1.9 km/h 1.9 km/h 94 % 0 mm
06:24 6 °C 5.1 °C 1017.2 hPa Calm     94 % 0 mm
06:29 6.1 °C 5 °C 1017.5 hPa Calm     93 % 0 mm
06:34 6.1 °C 5.2 °C 1017.5 hPa Calm     94 % 0 mm
06:39 6 °C 5.1 °C 1017.5 hPa SSW 3.7 km/h   94 % 0 mm
06:44 6.2 °C 5.3 °C 1017.5 hPa Calm     94 % 0 mm
06:49 6.4 °C 5.5 °C 1017.5 hPa Calm     94 % 0 mm
06:54 6.6 °C 5.7 °C 1017.5 hPa Calm     94 % 0 mm
06:59 6.7 °C 5.8 °C 1017.8 hPa Calm     94 % 0 mm
07:04 6.9 °C 6.2 °C 1017.8 hPa Calm     95 % 0 mm
07:09 7.2 °C 6.5 °C 1017.8 hPa Calm     95 % 0 mm
07:14 7.4 °C 6.7 °C 1017.8 hPa Calm     95 % 0 mm
07:19 7.8 °C 7.1 °C 1018.2 hPa Calm     95 % 0 mm
07:24 8.1 °C 7.3 °C 1018.2 hPa Calm     95 % 0 mm
07:29 8.2 °C 7.3 °C 1017.8 hPa Calm     94 % 0 mm
07:34 8.4 °C 7.7 °C 1017.8 hPa Calm     95 % 0 mm
07:39 8.7 °C 7.9 °C 1017.8 hPa Calm     95 % 0 mm
07:44 9.1 °C 8.3 °C 1018.2 hPa SSW 3.2 km/h 2.4 km/h 95 % 0 mm
07:49 9.4 °C 8.6 °C 1017.8 hPa SSW 5.6 km/h 1.6 km/h 95 % 0 mm
07:54 9.7 °C 8.8 °C 1017.8 hPa SSW 5.6 km/h 3.5 km/h 94 % 0 mm
07:59 10 °C 8.9 °C 1018.2 hPa SSW 5.6 km/h 3.4 km/h 93 % 0 mm
08:04 10.3 °C 9.3 °C 1018.2 hPa SSW 5.6 km/h 2.6 km/h 93 % 0 mm
08:09 10.7 °C 9.5 °C 1018.2 hPa SSW 3.7 km/h 2.6 km/h 92 % 0 mm
08:14 11.1 °C 9.7 °C 1018.2 hPa SW 5.6 km/h 3.7 km/h 91 % 0 mm
08:19 11.5 °C 9.7 °C 1018.2 hPa SSW 5.6 km/h 4.2 km/h 89 % 0 mm
08:24 11.9 °C 9.6 °C 1018.2 hPa SSW 5.6 km/h 2.9 km/h 86 % 0 mm
08:29 12.2 °C 9.4 °C 1018.2 hPa SSW 5.6 km/h 1.9 km/h 83 % 0 mm
08:34 12.6 °C 9.4 °C 1018.2 hPa SSW 6.4 km/h 6 km/h 81 % 0 mm
08:39 12.9 °C 9.2 °C 1018.2 hPa SSW 5.6 km/h 1.9 km/h 78 % 0 mm
08:44 13.2 °C 9 °C 1018.5 hPa SSW 4.8 km/h 1.9 km/h 76 % 0 mm
08:49 13.4 °C 9.1 °C 1018.5 hPa SSW 5.6 km/h 4.5 km/h 75 % 0 mm
08:54 13.6 °C 8.8 °C 1018.5 hPa SSW 5.6 km/h 0.3 km/h 73 % 0 mm
08:59 13.9 °C 8.8 °C 1018.5 hPa SSW 9.7 km/h 6.9 km/h 71 % 0 mm
09:04 13.9 °C 8.6 °C 1018.5 hPa SSW 8 km/h 3.4 km/h 70 % 0 mm
09:09 13.8 °C 8.4 °C 1018.5 hPa SSW 13 km/h 7.1 km/h 70 % 0 mm
09:14 13.6 °C 8.4 °C 1018.5 hPa North 9.3 km/h 6.4 km/h 71 % 0 mm
09:19 13.4 °C 8.5 °C 1018.2 hPa SW 5.6 km/h 1.3 km/h 72 % 0 mm
09:24 13.6 °C 8.6 °C 1018.2 hPa SW 4.8 km/h 3.7 km/h 72 % 0 mm
09:29 14 °C 8.6 °C 1018.2 hPa North 5.6 km/h 5 km/h 70 % 0 mm
09:34 14.6 °C 8.9 °C 1018.2 hPa SW 9.7 km/h 6.1 km/h 69 % 0 mm
09:39 14.3 °C 8.4 °C 1018.2 hPa WSW 14.8 km/h 11.3 km/h 68 % 0 mm
09:44 14 °C 8.2 °C 1018.2 hPa West 5.6 km/h 4.2 km/h 68 % 0 mm
09:49 14.3 °C 8.7 °C 1018.2 hPa WSW 11.1 km/h 9.3 km/h 69 % 0 mm
09:54 14.7 °C 8.7 °C 1018.2 hPa WSW 12.9 km/h 7.2 km/h 67 % 0 mm
09:59 15.1 °C 8.5 °C 1018.2 hPa WSW 13 km/h 7.6 km/h 65 % 0 mm
10:04 14.9 °C 8.4 °C 1018.2 hPa North 16.7 km/h 12.6 km/h 65 % 0 mm
10:09 14.9 °C 8.6 °C 1018.2 hPa North 9.3 km/h 8 km/h 66 % 0 mm
10:14 14.9 °C 8.7 °C 1018.2 hPa West 9.7 km/h 6.3 km/h 66 % 0 mm
10:19 15 °C 8.2 °C 1018.2 hPa North 7.4 km/h 6.3 km/h 64 % 0 mm
10:24 14.9 °C 8.4 °C 1018.5 hPa West 14.8 km/h 7.1 km/h 65 % 0 mm
10:29 15.2 °C 8.7 °C 1018.2 hPa West 11.1 km/h 9.5 km/h 65 % 0 mm
10:34 15.2 °C 8.4 °C 1018.2 hPa WNW 14.8 km/h 12.1 km/h 64 % 0 mm
10:39 14.9 °C 8.2 °C 1018.5 hPa WNW 11.1 km/h 8.4 km/h 64 % 0 mm
10:44 14.8 °C 8.3 °C 1018.5 hPa WNW 5.6 km/h 4.3 km/h 65 % 0 mm
10:49 15 °C 8.9 °C 1018.5 hPa WNW 11.1 km/h 7.7 km/h 67 % 0 mm
10:54 15.2 °C 8.6 °C 1018.5 hPa WNW 7.4 km/h 3.9 km/h 65 % 0 mm
10:59 15.4 °C 8.7 °C 1018.5 hPa WNW 9.3 km/h 6 km/h 64 % 0 mm
11:04 15.6 °C 8.8 °C 1018.2 hPa WNW 6.4 km/h 5.8 km/h 64 % 0 mm
11:09 15.7 °C 8.7 °C 1018.2 hPa WNW 5.6 km/h 1.4 km/h 63 % 0 mm
11:14 15.7 °C 8.4 °C 1018.5 hPa North 13 km/h 10 km/h 62 % 0 mm
11:19 15.8 °C 8.6 °C 1018.2 hPa WNW 5.6 km/h 4 km/h 62 % 0 mm
11:24 15.8 °C 8.6 °C 1018.5 hPa WNW 13 km/h 2.6 km/h 62 % 0 mm
11:29 15.8 °C 8.5 °C 1018.5 hPa WNW 12.9 km/h 10 km/h 62 % 0 mm
11:34 15.6 °C 8.6 °C 1018.5 hPa North 13 km/h 9 km/h 63 % 0 mm
11:39 15.5 °C 8.5 °C 1018.5 hPa West 18.5 km/h 11.7 km/h 63 % 0 mm
11:44 15.8 °C 8.7 °C 1018.5 hPa West 5.6 km/h 3.4 km/h 63 % 0 mm
11:49 16.7 °C 7.9 °C 1018.2 hPa West 14.8 km/h 9.3 km/h 56 % 0 mm
11:54 17.1 °C 8.8 °C 1018.5 hPa West 11.1 km/h 7.9 km/h 58 % 0 mm
11:59 17.1 °C 8.4 °C 1018.5 hPa West 14.8 km/h 10.8 km/h 57 % 0 mm
12:04 16.7 °C 8.3 °C 1018.2 hPa North 13 km/h 7.4 km/h 58 % 0 mm
12:09 16.8 °C 8.4 °C 1018.2 hPa West 5.6 km/h 3.2 km/h 58 % 0 mm
12:14 17.3 °C 8.7 °C 1018.2 hPa West 11.1 km/h 7.9 km/h 57 % 0 mm
12:19 16.8 °C 8.2 °C 1018.2 hPa WSW 18.5 km/h 9.2 km/h 57 % 0 mm
12:24 16.3 °C 8.1 °C 1018.2 hPa WSW 11.1 km/h 7.6 km/h 58 % 0 mm
12:29 16.3 °C 8 °C 1018.2 hPa West 11.1 km/h 6.8 km/h 58 % 0 mm
12:34 16.3 °C 8 °C 1018.2 hPa WSW 11.1 km/h 6.1 km/h 58 % 0 mm
12:39 16.6 °C 7.8 °C 1018.2 hPa West 4.8 km/h 2.3 km/h 56 % 0 mm
12:44 16.9 °C 7.8 °C 1018.2 hPa WSW 13 km/h 6.1 km/h 55 % 0 mm
12:49 16.9 °C 8.4 °C 1018.2 hPa WSW 8 km/h 6.1 km/h 57 % 0 mm
12:54 17.3 °C 7.9 °C 1018.2 hPa West 3.7 km/h 0.8 km/h 54 % 0 mm
12:59 17.6 °C 8.2 °C 1018.2 hPa West 17.7 km/h 13.4 km/h 54 % 0 mm
13:04 17.3 °C 7.9 °C 1018.2 hPa West 13 km/h 9.3 km/h 54 % 0 mm
13:09 17.4 °C 8.3 °C 1018.2 hPa North 14.8 km/h 8.2 km/h 55 % 0 mm
13:14 17.5 °C 8.1 °C 1018.2 hPa WSW 13 km/h 7.2 km/h 54 % 0 mm
13:19 17.2 °C 7.8 °C 1018.2 hPa WSW 11.1 km/h 8.4 km/h 54 % 0 mm
13:24 17.3 °C 8.2 °C 1017.8 hPa North 11.3 km/h 8.5 km/h 55 % 0 mm
13:29 17.6 °C 8.4 °C 1017.8 hPa North 4.8 km/h 4.3 km/h 55 % 0 mm
13:34 17.9 °C 9 °C 1017.8 hPa SW 11.1 km/h 10.9 km/h 56 % 0 mm
13:39 17.7 °C 8 °C 1017.8 hPa SW 16.7 km/h 9 km/h 53 % 0 mm
13:44 17.4 °C 7.8 °C 1017.8 hPa North 18.5 km/h 11.7 km/h 53 % 0 mm
13:49 17.3 °C 7.3 °C 1017.8 hPa SW 14.8 km/h   52 % 0 mm
13:54 17.8 °C 8.1 °C 1017.8 hPa SW 16.7 km/h 9.8 km/h 53 % 0 mm
13:59 17.8 °C 7.5 °C 1017.8 hPa SW 18.5 km/h 7.2 km/h 51 % 0 mm
14:04 17.4 °C 7.8 °C 1017.8 hPa SSW 18.5 km/h 10.1 km/h 53 % 0 mm
14:09 17.4 °C 8.1 °C 1017.8 hPa SW 13 km/h 10.5 km/h 54 % 0 mm
14:14 17.6 °C 7.8 °C 1017.8 hPa SW 20.4 km/h 13.4 km/h 53 % 0 mm
14:19 17.4 °C 7.7 °C 1017.5 hPa SSW 18.5 km/h 15.8 km/h 53 % 0 mm
14:24 17.6 °C 7.8 °C 1017.5 hPa SSW 12.9 km/h 10.6 km/h 53 % 0 mm
14:29 17.8 °C 8.1 °C 1017.5 hPa SW 16.1 km/h 9.8 km/h 53 % 0 mm
14:34 17.7 °C 7.7 °C 1017.5 hPa North 16.1 km/h 7.9 km/h 52 % 0 mm
14:39 18 °C 8 °C 1017.5 hPa North 8 km/h 7.6 km/h 52 % 0 mm
14:44 18.7 °C 8.1 °C 1017.5 hPa WSW 18.5 km/h 10.9 km/h 50 % 0 mm
14:49 18.6 °C 8 °C 1017.5 hPa West 18.5 km/h 11.4 km/h 50 % 0 mm
14:54 18.8 °C 7.8 °C 1017.5 hPa West 16.7 km/h 12.7 km/h 49 % 0 mm
14:59 18.7 °C 7.5 °C 1017.5 hPa WSW 18.5 km/h 10.8 km/h 48 % 0 mm
15:04 18.6 °C 7.9 °C 1017.5 hPa SSW 12.9 km/h 10 km/h 50 % 0 mm
15:09 18.4 °C 7.8 °C 1017.5 hPa SW 13 km/h 9.3 km/h 50 % 0 mm
15:14 18.4 °C 7.5 °C 1017.2 hPa SW 14.8 km/h 11.1 km/h 49 % 0 mm
15:19 18.3 °C 7.4 °C 1017.2 hPa SW 18.5 km/h 11.6 km/h 49 % 0 mm
15:24 18.4 °C 8.1 °C 1017.2 hPa SSW 14.8 km/h 9.7 km/h 51 % 0 mm
15:29 18.6 °C 7.3 °C 1017.2 hPa SSW 9.7 km/h 8.5 km/h 48 % 0 mm
15:34 18.6 °C 7.4 °C 1017.2 hPa SSW 18.5 km/h 9.3 km/h 48 % 0 mm
15:39 18.6 °C 7.1 °C 1017.2 hPa SW 12.9 km/h 8 km/h 47 % 0 mm
15:44 18.9 °C 7.3 °C 1017.2 hPa WSW 16.1 km/h 13 km/h 47 % 0 mm
15:49 18.7 °C 7.1 °C 1017.2 hPa WSW 16.7 km/h 10.9 km/h 47 % 0 mm
15:54 18.1 °C 7.4 °C 1017.2 hPa SW 11.1 km/h 11.3 km/h 50 % 0 mm
15:59 17.8 °C 7.6 °C 1017.2 hPa SW 13 km/h 10.1 km/h 51 % 0 mm
16:04 17.8 °C 7.3 °C 1017.2 hPa SW 9.3 km/h 1.4 km/h 50 % 0 mm
16:09 17.8 °C 7.3 °C 1017.2 hPa SW 7.4 km/h 6.9 km/h 50 % 0 mm
16:14 17.9 °C 7.3 °C 1016.8 hPa SSW 8 km/h 7.4 km/h 50 % 0 mm
16:19 18.2 °C 7.9 °C 1016.8 hPa SSW 9.3 km/h 7.7 km/h 51 % 0 mm
16:24 18.7 °C 7.7 °C 1016.8 hPa SSW 9.3 km/h 9 km/h 49 % 0 mm
16:29 18.7 °C 7.8 °C 1016.8 hPa South 14.5 km/h 7.7 km/h 49 % 0 mm
16:34 18.7 °C 7.5 °C 1016.8 hPa South 9.3 km/h 2.7 km/h 48 % 0 mm
16:39 18.9 °C 7.6 °C 1016.8 hPa SSE 11.1 km/h 6.6 km/h 48 % 0 mm
16:44 18.8 °C 7.3 °C 1016.8 hPa SW 16.7 km/h 12.7 km/h 47 % 0 mm
16:49 18.8 °C 7.6 °C 1017.2 hPa SW 11.1 km/h 5.8 km/h 48 % 0 mm
16:54 18.8 °C 7.2 °C 1017.2 hPa SW 14.8 km/h 12.9 km/h 47 % 0 mm
16:59 18.9 °C 7 °C 1017.2 hPa SW 7.4 km/h 4.5 km/h 46 % 0 mm
17:04 19 °C 7.7 °C 1017.2 hPa SSW 16.7 km/h 8.4 km/h 48 % 0 mm
17:09 18.9 °C 7.7 °C 1017.2 hPa SSW 18.5 km/h 10.8 km/h 48 % 0 mm
17:14 19 °C 7.7 °C 1017.2 hPa SW 14.5 km/h 10.1 km/h 48 % 0 mm
17:19 18.5 °C 7.6 °C 1017.2 hPa SW 12.9 km/h 6.3 km/h 49 % 0 mm
17:24 18.2 °C 7.6 °C 1017.2 hPa SSW 14.8 km/h 10.1 km/h 50 % 0 mm
17:29 18.3 °C 7.7 °C 1017.2 hPa SSW 13 km/h 7.1 km/h 50 % 0 mm
17:34 18.6 °C 8 °C 1017.2 hPa SSW 9.7 km/h 5.8 km/h 50 % 0 mm
17:39 18.8 °C 7.6 °C 1017.2 hPa SSW 13 km/h 8.2 km/h 48 % 0 mm
17:44 18.8 °C 7.6 °C 1017.2 hPa SSW 14.8 km/h 11.3 km/h 48 % 0 mm
17:49 18.7 °C 7.5 °C 1017.2 hPa SSW 13 km/h 4.5 km/h 48 % 0 mm
17:54 18.8 °C 7.6 °C 1017.2 hPa SSW 20.4 km/h 12.4 km/h 48 % 0 mm
17:59 18.4 °C 7.5 °C 1017.2 hPa South 11.3 km/h 11.4 km/h 49 % 0 mm
18:04 18.4 °C 8.1 °C 1017.2 hPa SSW 7.4 km/h 6.6 km/h 51 % 0 mm
18:09 18.5 °C 7.6 °C 1017.2 hPa SSW 13 km/h 7.9 km/h 49 % 0 mm
18:14 18.4 °C 7.5 °C 1017.2 hPa SSW 20.4 km/h 16.7 km/h 49 % 0 mm
18:19 18.3 °C 7.7 °C 1017.2 hPa SSW 13 km/h 7.1 km/h 50 % 0 mm
18:24 18.4 °C 7.5 °C 1017.2 hPa South 18.5 km/h 11.7 km/h 49 % 0 mm
18:29 18.4 °C 7.5 °C 1017.2 hPa South 14.8 km/h 9.3 km/h 49 % 0 mm
18:34 18.4 °C 7.5 °C 1017.2 hPa South 14.8 km/h 8.5 km/h 49 % 0 mm
18:39 18.3 °C 7.7 °C 1017.2 hPa South 20.4 km/h 13.7 km/h 50 % 0 mm
18:44 18.1 °C 7.8 °C 1017.2 hPa South 18.5 km/h 9 km/h 51 % 0 mm
18:49 18 °C 7.7 °C 1017.2 hPa South 16.7 km/h 11.1 km/h 51 % 0 mm
18:54 17.8 °C 7.6 °C 1017.2 hPa SSW 18.5 km/h 14.8 km/h 51 % 0 mm
18:59 17.8 °C 7.8 °C 1017.2 hPa SSW 16.7 km/h 9 km/h 52 % 0 mm
19:04 17.7 °C 7.9 °C 1017.2 hPa South 14.8 km/h 10.9 km/h 53 % 0 mm
19:09 17.5 °C 7.8 °C 1017.2 hPa South 20.4 km/h 10.3 km/h 53 % 0 mm
19:14 17.3 °C 8.2 °C 1017.5 hPa South 14.8 km/h 6.8 km/h 55 % 0 mm
19:19 17.1 °C 8 °C 1017.5 hPa South 18.5 km/h 11.6 km/h 55 % 0 mm
19:24 17 °C 8.2 °C 1017.5 hPa South 18.5 km/h 8.9 km/h 56 % 0 mm
19:25 17 °C 8.2 °C 1017.5 hPa South 14.8 km/h 10.3 km/h 56 % 0 mm
19:49 16.1 °C 8.1 °C 1017.8 hPa SSW 14.8 km/h 9 km/h 59 % 0 mm
19:54 15.9 °C 7.9 °C 1017.8 hPa South 9.3 km/h 8.2 km/h 59 % 0 mm
19:59 15.6 °C 8.1 °C 1018.2 hPa South 9.3 km/h 6.8 km/h 61 % 0 mm
20:04 15.4 °C 7.9 °C 1018.2 hPa South 9.3 km/h 4 km/h 61 % 0 mm
20:09 15.2 °C 8 °C 1018.2 hPa South 5.6 km/h 4.5 km/h 62 % 0 mm
20:14 15 °C 8 °C 1018.2 hPa South 11.1 km/h 4.5 km/h 63 % 0 mm
20:19 14.8 °C 8.1 °C 1018.5 hPa South 7.4 km/h 7.1 km/h 64 % 0 mm
20:24 14.7 °C 8 °C 1018.5 hPa South 13 km/h 9.2 km/h 64 % 0 mm
20:29 14.6 °C 8.1 °C 1018.5 hPa South 7.4 km/h 6.8 km/h 65 % 0 mm
20:34 14.4 °C 8.2 °C 1018.5 hPa South 8 km/h 4.5 km/h 66 % 0 mm
20:39 14.3 °C 8 °C 1018.5 hPa South 6.4 km/h 5.6 km/h 66 % 0 mm
20:44 14.1 °C 8.1 °C 1018.5 hPa South 8 km/h 2.9 km/h 67 % 0 mm
20:49 13.9 °C 8.1 °C 1018.5 hPa South 5.6 km/h 2.1 km/h 68 % 0 mm
20:54 13.7 °C 7.9 °C 1018.5 hPa South 5.6 km/h 5.5 km/h 68 % 0 mm
20:59 13.4 °C 7.9 °C 1018.8 hPa South 6.4 km/h 4.8 km/h 69 % 0 mm
21:04 13.3 °C 7.9 °C 1018.8 hPa South 7.4 km/h 4.8 km/h 70 % 0 mm
21:09 13.1 °C 7.9 °C 1018.8 hPa South 7.4 km/h 3.9 km/h 71 % 0 mm
21:14 12.9 °C 8 °C 1018.8 hPa South 5.6 km/h 5.1 km/h 72 % 0 mm
21:19 12.8 °C 7.9 °C 1018.8 hPa South 8 km/h 5.6 km/h 72 % 0 mm
21:24 12.7 °C 8 °C 1018.8 hPa South 7.4 km/h 6.1 km/h 73 % 0 mm
21:29 12.6 °C 7.9 °C 1018.8 hPa South 5.6 km/h 4.3 km/h 73 % 0 mm
21:34 12.5 °C 8 °C 1018.8 hPa South 5.6 km/h 4.7 km/h 74 % 0 mm
21:39 12.3 °C 7.8 °C 1019.2 hPa South 11.1 km/h 6.6 km/h 74 % 0 mm
21:44 12.2 °C 7.9 °C 1019.2 hPa SSW 9.3 km/h 6 km/h 75 % 0 mm
21:49 12 °C 7.9 °C 1019.2 hPa South 7.4 km/h 6 km/h 76 % 0 mm
21:54 11.9 °C 7.8 °C 1019.2 hPa South 7.4 km/h 2.4 km/h 76 % 0 mm
21:59 11.8 °C 7.7 °C 1019.5 hPa South 5.6 km/h 0.8 km/h 76 % 0 mm
22:04 11.7 °C 7.8 °C 1019.5 hPa South 5.6 km/h 4.7 km/h 77 % 0 mm
22:09 11.5 °C 7.6 °C 1019.5 hPa South 5.6 km/h 2.9 km/h 77 % 0 mm
22:14 11.4 °C 7.7 °C 1019.5 hPa South 7.4 km/h 3.4 km/h 78 % 0 mm
22:19 11.2 °C 7.7 °C 1019.5 hPa South 7.4 km/h 3.2 km/h 79 % 0 mm
22:24 11.2 °C 7.7 °C 1019.5 hPa South 11.1 km/h 4 km/h 79 % 0 mm
22:29 11.1 °C 7.6 °C 1019.5 hPa South 7.4 km/h 4 km/h 79 % 0 mm
22:34 11 °C 7.7 °C 1019.5 hPa South 13 km/h 6.8 km/h 80 % 0 mm
22:39 10.9 °C 7.6 °C 1019.5 hPa South 5.6 km/h 4.2 km/h 80 % 0 mm
22:44 10.9 °C 7.6 °C 1019.5 hPa South 8 km/h 5.5 km/h 80 % 0 mm
22:49 10.8 °C 7.5 °C 1019.5 hPa South 7.4 km/h 5.6 km/h 80 % 0 mm
22:54 10.8 °C 7.4 °C 1019.5 hPa South 6.4 km/h 5.5 km/h 80 % 0 mm
22:59 10.7 °C 7.4 °C 1019.5 hPa South 8 km/h 6.1 km/h 80 % 0 mm
23:04 10.6 °C 7.5 °C 1019.5 hPa South 7.4 km/h 4 km/h 81 % 0 mm
23:09 10.6 °C 7.4 °C 1019.5 hPa South 9.7 km/h 7.2 km/h 81 % 0 mm
23:14 10.5 °C 7.4 °C 1019.5 hPa South 8 km/h 3.9 km/h 81 % 0 mm
23:19 10.4 °C 7.3 °C 1019.5 hPa South 7.4 km/h 3.4 km/h 81 % 0 mm
23:24 10.3 °C 7.2 °C 1019.5 hPa South 5.6 km/h 1.8 km/h 81 % 0 mm
23:29 10.2 °C 7.1 °C 1019.5 hPa South 5.6 km/h 3.1 km/h 81 % 0 mm
23:34 10.1 °C 7.2 °C 1019.5 hPa South 5.6 km/h 3.1 km/h 82 % 0 mm
23:39 10 °C 7.1 °C 1019.5 hPa South 3.7 km/h 2.4 km/h 82 % 0 mm
23:44 9.9 °C 6.9 °C 1019.2 hPa South 1.9 km/h 2.3 km/h 82 % 0 mm
23:49 9.8 °C 6.8 °C 1019.5 hPa South 7.4 km/h 2.6 km/h 82 % 0 mm
23:54 9.7 °C 7 °C 1019.5 hPa South 9.3 km/h 5.5 km/h 83 % 0 mm
23:59 9.6 °C 6.9 °C 1019.5 hPa South 9.7 km/h 6.6 km/h 83 % 0 mm
Ararat Weather
Compliments of Weather Underground - 2.25 mb
Click here to send mail.


ABOUT

Live weather data from Ararat, Victoria, Australia, 3377
Data uploaded from Cumulus every 5 minutes to Weather Underground.
This site then downloads the raw data for formatting and display.
Metric and imperial data can be displayed. Graphs and historical data available.
Includes Sun and Moon times and rain image live from BOM.

Check out Ararat Weather on Facebook, Twitter and Google +

Help support ongoing costs by checking out the ads





Follow @AraratWeather